Hauptseite
METAR-TAF:

METAR-TAF

Flughäfen :

Flugplatz Uppsala-Ärna

Uppsala, Schweden

Breite: 59-53N, Länge: 017-36E, Höhe: 21 m

Beobachtung

Neuester Wetterbericht von vor 48 Minuten, um 23:50 UTC
Wind 6 kt aus Nord/Nordwest
Temperatur -1°C
Luftfeuchtigkeit 93%
Luftdruck 1004 hPa
Sichtweite 10 km oder mehr

METAR: ESCM 162350Z AUTO 33006KT 9999 NCD M01/M02 Q1004

Zeit: 02:38 (00:38 UTC)

Prognose

Neuester Wetterbericht von vor 13 Stunden und 8 Minuten, um 11:30 UTC
Gültige Prognose vom 16 um 12 UTC bis 16 um 14 UTC
Wind 14 kt aus Nord/Nordost
Sichtweite 10 km oder mehr
Durchbrochene Bewölkung in der Höhe von 2000 ft
Leichtregen
Zeitweise
vom 16 um 12 UTC bis 16 um 14 UTC
Sichtweite: 5000 m
Durchbrochene Bewölkung in der Höhe von 600 ft

TAF: ESCM 161130Z 1612/1614 03014KT 9999 -RA BKN020 TEMPO 1612/1614 NSW 5000 BKN006

Wetterbeobachtungen und Prognosen von mehr als 4000 Flughäfen (METAR und TAF Bericht).

Die verfügbaren Stationen werden durch gelbe und rote Markierungen auf der Karte dargestellt.

Führen Sie die Maus auf sie, um den Namen der Station zu sehen.

Darauf klicken, um die Beobachtung von Wetterbeobachtungen und Prognosen zu sehen.

Um die Karte zu ändern : klicken Sie auf den grünen Tasten mit einem schwarzen Kreuz Zum Vergrößern, auf den grünen Button mit einem Gedankenstrich zu verkleinern, oder auf die grünen Pfeile für benachbarte Karten.


METAR-TAF: